地図

経路データ

SID SEASON NUMBER BASIN SUBBASIN NAME ISO_TIME NATURE LAT LON WMO_WIND WMO_PRES WMO_AGENCY TRACK_TYPE DIST2LAND LANDFALL IFLAG USA_AGENCY USA_ATCF_ID USA_LAT USA_LON USA_RECORD USA_STATUS USA_WIND USA_PRES USA_SSHS USA_R34_NE USA_R34_SE USA_R34_SW USA_R34_NW USA_R50_NE USA_R50_SE USA_R50_SW USA_R50_NW USA_R64_NE USA_R64_SE USA_R64_SW USA_R64_NW USA_POCI USA_ROCI USA_RMW USA_EYE TOKYO_LAT TOKYO_LON TOKYO_GRADE TOKYO_WIND TOKYO_PRES TOKYO_R50_DIR TOKYO_R50_LONG TOKYO_R50_SHORT TOKYO_R30_DIR TOKYO_R30_LONG TOKYO_R30_SHORT TOKYO_LAND CMA_LAT CMA_LON CMA_CAT CMA_WIND CMA_PRES HKO_LAT HKO_LON HKO_CAT HKO_WIND HKO_PRES NEWDELHI_LAT NEWDELHI_LON NEWDELHI_GRADE NEWDELHI_WIND NEWDELHI_PRES NEWDELHI_CI NEWDELHI_DP NEWDELHI_POCI REUNION_LAT REUNION_LON REUNION_TYPE REUNION_WIND REUNION_PRES REUNION_TNUM REUNION_CI REUNION_RMW REUNION_R34_NE REUNION_R34_SE REUNION_R34_SW REUNION_R34_NW REUNION_R50_NE REUNION_R50_SE REUNION_R50_SW REUNION_R50_NW REUNION_R64_NE REUNION_R64_SE REUNION_R64_SW REUNION_R64_NW BOM_LAT BOM_LON BOM_TYPE BOM_WIND BOM_PRES BOM_TNUM BOM_CI BOM_RMW BOM_R34_NE BOM_R34_SE BOM_R34_SW BOM_R34_NW BOM_R50_NE BOM_R50_SE BOM_R50_SW BOM_R50_NW BOM_R64_NE BOM_R64_SE BOM_R64_SW BOM_R64_NW BOM_ROCI BOM_POCI BOM_EYE BOM_POS_METHOD BOM_PRES_METHOD NADI_LAT NADI_LON NADI_CAT NADI_WIND NADI_PRES WELLINGTON_LAT WELLINGTON_LON WELLINGTON_WIND WELLINGTON_PRES DS824_LAT DS824_LON DS824_STAGE DS824_WIND DS824_PRES TD9636_LAT TD9636_LON TD9636_STAGE TD9636_WIND TD9636_PRES TD9635_LAT TD9635_LON TD9635_WIND TD9635_PRES TD9635_ROCI NEUMANN_LAT NEUMANN_LON NEUMANN_CLASS NEUMANN_WIND NEUMANN_PRES MLC_LAT MLC_LON MLC_CLASS MLC_WIND MLC_PRES USA_GUST BOM_GUST BOM_GUST_PER REUNION_GUST REUNION_GUST_PER USA_SEAHGT USA_SEARAD_NE USA_SEARAD_SE USA_SEARAD_SW USA_SEARAD_NW STORM_SPEED STORM_DIR
1992279N08175 1992 103 WP MM ZACK 1992-10-05 00:00:00 NR 7.80000 174.900 main 2396 2367 O_____________ jtwc_wp WP221992 7.80000 174.900 15 -1 8 269
1992279N08175 1992 103 WP MM ZACK 1992-10-05 03:00:00 NR 7.79008 174.500 main 2367 2339 P_____________ WP221992 7.79008 174.500 15 -1 8 270
1992279N08175 1992 103 WP MM ZACK 1992-10-05 06:00:00 NR 7.80000 174.100 main 2339 2311 O_____________ jtwc_wp WP221992 7.80000 174.100 15 -1 8 274
1992279N08175 1992 103 WP MM ZACK 1992-10-05 09:00:00 NR 7.84246 173.700 main 2311 2293 P_____________ WP221992 7.84246 173.700 15 -1 8 277
1992279N08175 1992 103 WP MM ZACK 1992-10-05 12:00:00 NR 7.90000 173.300 main 2293 2266 O_____________ jtwc_wp WP221992 7.90000 173.300 15 -1 8 277
1992279N08175 1992 103 WP MM ZACK 1992-10-05 15:00:00 NR 7.94246 172.900 main 2266 2249 P_____________ WP221992 7.94246 172.900 15 -1 8 277
1992279N08175 1992 103 WP MM ZACK 1992-10-05 18:00:00 NR 8.00000 172.500 main 2249 2233 O_____________ jtwc_wp WP221992 8.00000 172.500 15 -1 8 280
1992279N08175 1992 103 WP MM ZACK 1992-10-05 21:00:00 NR 8.08496 172.100 main 2233 2218 P_____________ WP221992 8.08496 172.100 15 -1 8 284
1992279N08175 1992 103 WP MM ZACK 1992-10-06 00:00:00 NR 8.20000 171.700 main 2218 2204 O_____________ jtwc_wp WP221992 8.20000 171.700 15 -1 8 287
1992279N08175 1992 103 WP MM ZACK 1992-10-06 03:00:00 NR 8.33498 171.292 main 2204 2196 P_____________ WP221992 8.33498 171.292 15 -1 8 291
1992279N08175 1992 103 WP MM ZACK 1992-10-06 06:00:00 NR 8.50000 170.900 main 2200 2194 O_____________ jtwc_wp WP221992 8.50000 170.900 15 -1 8 297
1992279N08175 1992 103 WP MM ZACK 1992-10-06 09:00:00 NR 8.69985 170.572 main 2202 2196 P_____________ WP221992 8.69985 170.572 15 -1 8 300
1992279N08175 1992 103 WP MM ZACK 1992-10-06 12:00:00 NR 8.90000 170.200 main 2200 2185 O_____________ jtwc_wp WP221992 8.90000 170.200 15 -1 10 292
1992279N08175 1992 103 WP MM ZACK 1992-10-06 15:00:00 NR 9.05753 169.680 main 2195 2175 P_____________ WP221992 9.05753 169.680 17 -1 11 285
1992279N08175 1992 103 WP MM ZACK 1992-10-06 18:00:00 NR 9.20000 169.100 main 2176 2163 O_____________ jtwc_wp WP221992 9.20000 169.100 20 -1 12 286
1992279N08175 1992 103 WP MM ZACK 1992-10-06 21:00:00 NR 9.37241 168.550 main 2173 2158 P_____________ WP221992 9.37241 168.550 20 -1 11 285
1992279N08175 1992 103 WP MM ZACK 1992-10-07 00:00:00 NR 9.50000 168.000 main 2158 2138 O_____________ jtwc_wp WP221992 9.50000 168.000 20 -1 11 278
1992279N08175 1992 103 WP MM ZACK 1992-10-07 03:00:00 NR 9.52241 167.450 main 2134 2116 P_____________ WP221992 9.52241 167.450 22 -1 11 270
1992279N08175 1992 103 WP MM ZACK 1992-10-07 06:00:00 NR 9.50000 166.900 main 2116 2097 O_____________ jtwc_wp WP221992 9.50000 166.900 25 -1 11 268
1992279N08175 1992 103 WP MM ZACK 1992-10-07 09:00:00 NR 9.49241 166.350 main 2093 2066 P_____________ WP221992 9.49241 166.350 27 -1 11 270
1992279N08175 1992 103 WP MM ZACK 1992-10-07 12:00:00 NR 9.50000 165.800 main 2066 2035 O_____________ jtwc_wp WP221992 9.50000 165.800 30 -1 11 273
1992279N08175 1992 103 WP MM ZACK 1992-10-07 15:00:00 NR 9.54245 165.243 main 2029 2007 P_____________ WP221992 9.54245 165.243 30 -1 11 275
1992279N08175 1992 103 WP MM ZACK 1992-10-07 18:00:00 NR 9.60000 164.700 main 2007 1971 O_____________ jtwc_wp WP221992 9.60000 164.700 30 -1 10 276
1992279N08175 1992 103 WP MM ZACK 1992-10-07 21:00:00 NR 9.64989 164.192 main 1971 1945 P_____________ WP221992 9.64989 164.192 27 -1 10 276
1992279N08175 1992 103 WP MM ZACK 1992-10-08 00:00:00 NR 9.70000 163.700 main 1945 1911 O_____________ jtwc_wp WP221992 9.70000 163.700 25 -1 10 276
1992279N08175 1992 103 WP MM ZACK 1992-10-08 03:00:00 NR 9.74996 163.192 main 1911 1887 P_____________ WP221992 9.74996 163.192 25 -1 10 276
1992279N08175 1992 103 WP MM ZACK 1992-10-08 06:00:00 NR 9.80000 162.700 main 1887 1859 O_____________ jtwc_wp WP221992 9.80000 162.700 25 -1 9 277
1992279N08175 1992 103 WP MM ZACK 1992-10-08 09:00:00 NR 9.85741 162.243 main 1861 1835 P_____________ WP221992 9.85741 162.243 25 -1 9 276
1992279N08175 1992 103 WP MM ZACK 1992-10-08 12:00:00 NR 9.90000 161.800 main 1835 1809 O_____________ jtwc_wp WP221992 9.90000 161.800 25 -1 9 273
1992279N08175 1992 103 WP MM ZACK 1992-10-08 15:00:00 NR 9.90744 161.350 main 1803 1778 P_____________ WP221992 9.90744 161.350 25 -1 9 270
1992279N08175 1992 103 WP MM ZACK 1992-10-08 18:00:00 NR 9.90000 160.900 1004 tokyo main 1778 1753 O_____________ jtwc_wp WP221992 9.90000 160.900 25 -1 9 270
1992279N08175 1992 103 WP MM ZACK 1992-10-08 21:00:00 NR 9.91494 160.450 main 1753 1724 P_____________ WP221992 9.91494 160.450 27 -1 9 270
1992279N08175 1992 103 WP MM ZACK 1992-10-09 00:00:00 NR 9.90000 160.000 1004 tokyo main 1724 1692 O_____________ jtwc_wp WP221992 9.90000 160.000 30 -1 9 262
1992279N08175 1992 103 WP MM ZACK 1992-10-09 03:00:00 NR 9.78497 159.542 main 1686 1653 P_____________ WP221992 9.78497 159.542 30 -1 9 257
1992279N08175 1992 103 WP MM ZACK 1992-10-09 06:00:00 NR 9.70000 159.100 1004 tokyo main 1653 1631 O_____________ jtwc_wp WP221992 9.70000 159.100 30 -1 9 267
1992279N08175 1992 103 WP MM ZACK 1992-10-09 09:00:00 NR 9.73256 158.633 main 1626 1625 P_____________ WP221992 9.73256 158.633 32 -1 8 284
1992279N08175 1992 103 WP MM ZACK 1992-10-09 12:00:00 NR 9.90000 158.300 1004 tokyo main 1630 1630 O_____________ jtwc_wp WP221992 9.90000 158.300 35 0 6 318
1992279N08175 1992 103 WP MM ZACK 1992-10-09 15:00:00 NR 10.2049 158.203 main 1655 1655 P_____________ WP221992 10.2049 158.203 35 0 7 0
1992279N08175 1992 103 WP MM ZACK 1992-10-09 18:00:00 NR 10.6000 158.300 1002 tokyo main 1699 1699 O_____________ jtwc_wp WP221992 10.6000 158.300 35 0 8 20
1992279N08175 1992 103 WP MM ZACK 1992-10-09 21:00:00 NR 10.9925 158.497 main 1749 1749 P_____________ WP221992 10.9925 158.497 35 0 9 32
1992279N08175 1992 103 WP MM ZACK 1992-10-10 00:00:00 NR 11.4000 158.800 1002 tokyo main 1804 1804 O_____________ jtwc_wp WP221992 11.4000 158.800 35 0 10 38
1992279N08175 1992 103 WP MM ZACK 1992-10-10 03:00:00 NR 11.7925 159.135 main 1859 1859 P_____________ WP221992 11.7925 159.135 32 -1 11 41
1992279N08175 1992 103 WP MM ZACK 1992-10-10 06:00:00 NR 12.2000 159.500 1002 tokyo main 1919 1919 O_____________ jtwc_wp WP221992 12.2000 159.500 30 -1 11 40
1992279N08175 1992 103 WP MM ZACK 1992-10-10 09:00:00 NR 12.6425 159.858 main 1979 1979 P_____________ WP221992 12.6425 159.858 27 -1 11 37
1992279N08175 1992 103 WP MM ZACK 1992-10-10 12:00:00 NR 13.1000 160.200 1002 tokyo main 2043 2043 O_____________ jtwc_wp WP221992 13.1000 160.200 25 -1 11 35
1992279N08175 1992 103 WP MM ZACK 1992-10-10 15:00:00 NR 13.5424 160.508 main 2098 2098 P_____________ WP221992 13.5424 160.508 25 -1 14 22
1992279N08175 1992 103 WP MM ZACK 1992-10-10 18:00:00 TS 14.4000 160.740 1002 tokyo main 2197 2197 O_O___________ jtwc_wp WP221992 14.0000 160.800 25 -1 16.0000 160.500 1 23 1002 17 9
1992279N08175 1992 103 WP MM ZACK 1992-10-10 21:00:00 TS 15.2011 160.789 main 2281 2281 P_P___________ WP221992 14.4776 161.130 25 -1 16.1625 160.338 1 23 1002 13 359
1992279N08175 1992 103 WP MM ZACK 1992-10-11 00:00:00 TS 15.7222 160.733 1002 tokyo main 2326 2326 OOO___________ jtwc_wp WP221992 15.0000 161.400 25 -1 16.3000 160.200 2 1002 0 0 0 16.3000 160.200 1 23 1002 9 350
1992279N08175 1992 103 WP MM ZACK 1992-10-11 03:00:00 TS 16.1063 160.625 main 2360 2360 PPP___________ WP221992 15.5924 161.545 25 -1 16.3875 160.112 2 1002 0 0 16.4000 160.100 1 26 1001 7 344
1992279N08175 1992 103 WP MM ZACK 1992-10-11 06:00:00 TS 16.4000 160.533 1002 tokyo main 2385 2385 OOO___________ jtwc_wp WP221992 16.2000 161.600 25 -1 16.5000 160.000 2 1002 0 0 0 16.5000 160.000 1 29 1000 6 344
1992279N08175 1992 103 WP MM ZACK 1992-10-11 09:00:00 TS 16.6883 160.451 main 2415 2410 PPP___________ WP221992 16.7649 161.652 25 -1 16.6500 159.850 2 1002 0 0 16.6500 159.850 1 29 1000 6 342
1992279N08175 1992 103 WP MM ZACK 1992-10-11 12:00:00 TS 16.9667 160.333 1002 tokyo main 2436 2436 OOO___________ jtwc_wp WP221992 17.3000 161.600 25 -1 16.8000 159.700 2 1002 0 0 0 16.8000 159.700 1 29 1000 6 334
1992279N08175 1992 103 WP MM ZACK 1992-10-11 15:00:00 TS 17.2024 160.193 main 2451 2451 PPP___________ WP221992 17.8373 161.425 25 -1 16.8850 159.577 2 1002 0 0 16.8850 159.577 1 29 1000 6 329
1992279N08175 1992 103 WP MM ZACK 1992-10-11 18:00:00 TS 17.4333 160.033 1002 tokyo main 2463 2463 OOO___________ jtwc_wp WP221992 18.3000 161.100 25 -1 17.0000 159.500 2 1002 0 0 0 17.0000 159.500 1 29 1000 6 328
1992279N08175 1992 103 WP MM ZACK 1992-10-11 21:00:00 TS 17.6725 159.884 main 2489 2484 PPP___________ WP221992 18.6376 160.637 25 -1 17.1900 159.507 2 1002 0 0 17.1900 159.507 1 29 1000 6 329
1992279N08175 1992 103 WP MM ZACK 1992-10-12 00:00:00 TS 17.9667 159.700 1002 tokyo main 2511 2507 OOO___________ jtwc_wp WP221992 18.9000 160.100 25 -1 17.5000 159.500 2 1002 0 0 0 17.5000 159.500 1 29 1000 8 328
1992279N08175 1992 103 WP MM ZACK 1992-10-12 03:00:00 TS 18.3333 159.443 main 2529 2529 PPP___________ WP221992 19.1499 159.600 25 -1 17.9251 159.365 2 1002 0 0 17.9251 159.365 1 29 1000 10 329
1992279N08175 1992 103 WP MM ZACK 1992-10-12 06:00:00 TS 18.8000 159.167 1002 tokyo main 2573 2537 OOO___________ jtwc_wp WP221992 19.4000 159.100 25 -1 18.5000 159.200 2 1002 0 0 0 18.5000 159.200 1 29 1000 12 336
1992279N08175 1992 103 WP MM ZACK 1992-10-12 09:00:00 TS 19.3899 158.941 main 2530 2466 PPP___________ WP221992 19.6699 158.592 25 -1 19.2499 159.115 2 1002 0 0 19.2499 159.115 1 29 1000 13 340
1992279N08175 1992 103 WP MM ZACK 1992-10-12 12:00:00 TS 20.0000 158.700 1002 tokyo main 2466 2404 OOO___________ jtwc_wp WP221992 20.0000 158.100 25 -1 20.0000 159.000 2 1002 0 0 0 20.0000 159.000 1 29 1000 12 335
1992279N08175 1992 103 WP MM ZACK 1992-10-12 15:00:00 TS 20.5033 158.398 main 2404 2350 PPP___________ WP221992 20.4348 157.650 25 -1 20.5375 158.772 2 1002 0 0 20.5375 158.772 1 29 1000 11 328
1992279N08175 1992 103 WP MM ZACK 1992-10-12 18:00:00 TS 20.9667 158.067 1002 tokyo main 2342 2287 OOO___________ jtwc_wp WP221992 20.9000 157.200 25 -1 21.0000 158.500 2 1002 0 0 0 21.0000 158.500 1 29 1000 11 328
1992279N08175 1992 103 WP MM ZACK 1992-10-12 21:00:00 TS 21.4129 157.787 main 2287 2218 PPP___________ WP221992 21.3074 156.707 27 -1 21.4619 158.324 2 1002 0 0 21.4693 158.331 1 29 1000 11 326
1992279N08175 1992 103 WP MM ZACK 1992-10-13 00:00:00 TS 21.9000 157.400 1002 tokyo main 2218 2127 OOO___________ jtwc_wp WP221992 21.7000 156.200 30 -1 22.0000 158.000 2 1002 0 0 0 22.0000 158.000 1 29 1000 15 320
1992279N08175 1992 103 WP MM ZACK 1992-10-13 03:00:00 TS 22.5395 156.765 main 2127 2029 PPP___________ WP221992 22.0998 155.700 30 -1 22.7880 157.327 2 1001 0 0 22.7308 157.269 1 29 999 18 314
1992279N08175 1992 103 WP MM ZACK 1992-10-13 06:00:00 TS 23.1333 156.033 1000 tokyo main 2022 1948 OOO___________ jtwc_wp WP221992 22.5000 155.200 30 -1 23.5000 156.500 2 1000 0 0 0 23.4000 156.400 1 29 998 16 306
1992279N08175 1992 103 WP MM ZACK 1992-10-13 09:00:00 TS 23.4999 155.353 main 1948 1881 PPP___________ WP221992 22.9075 154.677 32 -1 23.8250 155.719 2 998 0 0 23.7672 155.661 1 29 996 14 298
1992279N08175 1992 103 WP MM ZACK 1992-10-13 12:00:00 TS 23.7667 154.733 996 tokyo main 1874 1823 OOO___________ jtwc_wp WP221992 23.3000 154.200 35 0 24.0000 155.000 2 996 0 0 0 24.0000 155.000 1 29 995 12 298
1992279N08175 1992 103 WP MM ZACK 1992-10-13 15:00:00 TS 24.0623 154.195 main 1815 1771 PPP___________ WP221992 23.6799 153.797 37 0 24.2497 154.390 2 994 0 0 24.2573 154.397 1 29 995 11 303
1992279N08175 1992 103 WP MM ZACK 1992-10-13 18:00:00 TS 24.3333 153.767 35 992 tokyo main 1771 1725 OOO___________ jtwc_wp WP221992 24.0000 153.500 40 0 24.5000 153.900 3 35 992 0 9 80 80 0 24.5000 153.900 1 29 995 9 308
1992279N08175 1992 103 WP MM ZACK 1992-10-13 21:00:00 TS 24.5990 153.436 main 1718 1688 PPP___________ WP221992 24.2224 153.312 40 0 24.7873 153.498 3 37 992 0 9 85 85 24.7873 153.498 1 33 993 7 312
1992279N08175 1992 103 WP MM ZACK 1992-10-14 00:00:00 TS 24.8000 153.200 40 992 tokyo main 1688 1666 OOO___________ jtwc_wp WP221992 24.4000 153.200 40 0 25.0000 153.200 3 40 992 0 9 90 90 0 25.0000 153.200 2 38 992 5 306
1992279N08175 1992 103 WP MM ZACK 1992-10-14 03:00:00 TS 24.8966 152.983 main 1666 1659 PPP___________ WP221992 24.6000 153.085 37 0 25.0449 152.932 3 40 992 0 9 90 90 25.0449 152.932 2 38 992 3 294
1992279N08175 1992 103 WP MM ZACK 1992-10-14 06:00:00 TS 24.9333 152.867 40 992 tokyo main 1659 1659 OOO___________ jtwc_wp WP221992 24.8000 153.000 35 0 25.0000 152.800 3 40 992 0 9 90 90 0 25.0000 152.800 2 38 992 1 292
1992279N08175 1992 103 WP MM ZACK 1992-10-14 09:00:00 TS 24.9367 152.879 main 1659 1651 PPP___________ WP221992 25.0000 152.935 32 -1 24.9050 152.848 3 40 992 0 9 90 90 24.9050 152.855 2 38 993 1 53
1992279N08175 1992 103 WP MM ZACK 1992-10-14 12:00:00 TS 25.0000 152.967 40 992 tokyo main 1658 1649 OOO___________ jtwc_wp WP221992 25.2000 152.900 30 -1 24.9000 153.000 3 40 992 0 9 90 90 0 24.9000 153.000 2 38 994 4 31
1992279N08175 1992 103 WP MM ZACK 1992-10-14 15:00:00 TS 25.2466 153.090 main 1649 1625 PPP___________ WP221992 25.4000 152.892 30 -1 25.1700 153.217 3 37 993 0 9 85 85 25.1699 153.160 2 33 994 6 16
1992279N08175 1992 103 WP MM ZACK 1992-10-14 18:00:00 TS 25.5333 153.133 35 994 tokyo main 1625 1595 OOO___________ jtwc_wp WP221992 25.6000 152.900 30 -1 25.5000 153.300 3 35 994 0 9 80 80 0 25.5000 153.200 1 29 995 5 342
1992279N08175 1992 103 WP MM ZACK 1992-10-14 21:00:00 TS 25.7353 152.919 main 1595 1565 PPP___________ WP221992 25.8000 152.900 27 -1 25.7330 152.943 3 35 994 0 9 80 80 25.6728 152.915 1 29 995 5 311
1992279N08175 1992 103 WP MM ZACK 1992-10-15 00:00:00 TS 25.8667 152.700 35 994 tokyo main 1565 1565 OOO___________ jtwc_wp WP221992 26.0000 152.900 25 -1 25.8000 152.600 3 35 994 0 9 80 80 0 25.8000 152.600 1 29 996 2 307
1992279N08175 1992 103 WP MM ZACK 1992-10-15 03:00:00 TS 25.8750 152.714 main 1565 1565 PPP___________ WP221992 26.2000 152.885 25 -1 25.4825 152.733 3 997 0 9 25.9423 152.525 1 29 998 1 61
1992279N08175 1992 103 WP MM ZACK 1992-10-15 06:00:00 TS 25.9333 152.833 1000 tokyo main 1573 1556 OOO___________ jtwc_wp WP221992 26.4000 152.900 25 -1 25.3000 153.000 2 1000 0 0 0 26.1000 152.600 1 29 1000 4 32
1992279N08175 1992 103 WP MM ZACK 1992-10-15 09:00:00 TS 26.2192 152.954 main 1563 1538 PPP___________ WP221992 26.6000 152.985 25 -1 25.7875 153.107 2 1001 0 0 26.2701 152.770 1 26 1001 7 20
1992279N08175 1992 103 WP MM ZACK 1992-10-15 12:00:00 TS 26.6000 153.100 1002 tokyo main 1538 1522 OOO___________ jtwc_wp WP221992 26.8000 153.100 25 -1 26.5000 153.200 2 1002 0 0 0 26.5000 153.000 1 23 1002 8 19
1992279N08175 1992 103 WP MM ZACK 1992-10-15 15:00:00 TS 26.9599 153.238 main 1514 1506 PPP___________ WP221992 27.0075 153.200 25 -1 27.0524 153.328 2 1002 0 0 26.8199 153.185 1 23 1002 8 21
1992279N08175 1992 103 WP MM ZACK 1992-10-15 18:00:00 TS 27.3000 153.400 1002 tokyo main 1506 1499 OOO___________ jtwc_wp WP221992 27.2000 153.300 25 -1 27.5000 153.500 2 1002 0 0 0 27.2000 153.400 1 23 1002 7 27
1992279N08175 1992 103 WP MM ZACK 1992-10-15 21:00:00 TS 27.5590 153.582 main 1499 1499 PPP___________ WP221992 27.3500 153.393 25 -1 27.7497 153.698 2 1003 0 0 27.5773 153.656 1 21 1003 6 35
1992279N08175 1992 103 WP MM ZACK 1992-10-16 00:00:00 TS 27.8000 153.800 1004 tokyo main 1500 1494 OOO___________ jtwc_wp WP221992 27.5000 153.500 25 -1 28.0000 154.000 2 1004 0 0 0 28.0000 154.000 0 19 1004 7 38
1992279N08175 1992 103 WP MM ZACK 1992-10-16 03:00:00 TS 28.0690 154.039 main 1495 1495 PPP___________ WP221992 27.6774 153.620 25 -1 28.4381 154.453 2 1004 0 0 28.4831 154.464 0 19 1004 6 37
1992279N08175 1992 103 WP MM ZACK 1992-10-16 06:00:00 TS 28.2667 154.200 1004 tokyo main 1497 1496 OOO___________ jtwc_wp WP221992 27.9000 153.800 25 -1 29.0000 155.000 2 1004 0 0 0 29.0000 155.000 0 19 1004 1 12
1992279N08175 1992 103 WP MM ZACK 1992-10-16 09:00:00 NR 28.1849 154.063 main 1496 1489 P_____________ WP221992 28.1849 154.063 22 -1 2 0 0 0 3 37
1992279N08175 1992 103 WP MM ZACK 1992-10-16 12:00:00 NR 28.5000 154.400 main 1499 1499 O_____________ jtwc_wp WP221992 28.5000 154.400 20 -1 9 46
1992279N08175 1992 103 WP MM ZACK 1992-10-16 15:00:00 NR 28.7848 154.763 main 1512 1512 P_____________ WP221992 28.7848 154.763 20 -1 9 49
1992279N08175 1992 103 WP MM ZACK 1992-10-16 18:00:00 NR 29.1000 155.200 main 1526 1526 O_____________ jtwc_wp WP221992 29.1000 155.200 20 -1 11 50
1992279N08175 1992 103 WP MM ZACK 1992-10-16 21:00:00 NR 29.4806 155.724 main 1544 1544 P_____________ WP221992 29.4806 155.724 20 -1 12 50
1992279N08175 1992 103 WP MM ZACK 1992-10-17 00:00:00 NR 29.9000 156.300 main 1573 O_____________ jtwc_wp WP221992 29.9000 156.300 20 -1 13 50

デジタル台風データ・検索

IBTrACS Databaseについて

本データベースは、米国NOAAが公開する1842年以降の世界の熱帯低気圧のベストトラックデータアーカイブInternational Best Track Archive for Climate Stewardship (IBTrACS)を、ウェブで閲覧しやすい形式に変換したものです。

最終更新日:2021-10-21